createdAt,value
2019-02-04T00:00:37.120Z,99.84
2019-02-04T00:01:37.071Z,99.95
2019-02-04T00:02:37.059Z,99.99
2019-02-04T00:03:37.073Z,99.95
2019-02-04T00:04:37.041Z,99.95
2019-02-04T00:05:37.029Z,99.99
2019-02-04T00:06:37.031Z,99.95
2019-02-04T00:07:37.009Z,99.99
2019-02-04T00:08:37.019Z,99.95
2019-02-04T00:09:36.985Z,99.84
2019-02-04T00:10:37.006Z,99.99
2019-02-04T00:11:36.965Z,99.95
2019-02-04T00:12:36.953Z,99.99
2019-02-04T00:13:36.985Z,99.99
2019-02-04T00:14:36.931Z,99.99
2019-02-04T00:15:36.920Z,99.99
2019-02-04T00:16:40.967Z,99.99
2019-02-04T00:17:36.903Z,99.99
2019-02-04T00:18:36.917Z,99.99
2019-02-04T00:19:36.902Z,99.99
2019-02-04T00:20:36.866Z,99.99
2019-02-04T00:21:36.856Z,99.99
2019-02-04T00:22:36.850Z,99.99
2019-02-04T00:23:36.869Z,99.99
2019-02-04T00:24:36.833Z,99.99
2019-02-04T00:25:36.848Z,99.82
2019-02-04T00:26:36.804Z,99.99
2019-02-04T00:27:36.790Z,99.99
2019-02-04T00:28:36.796Z,99.82
2019-02-04T00:29:36.772Z,99.99
2019-02-04T00:30:36.849Z,99.82
2019-02-04T00:31:36.766Z,99.93
2019-02-04T00:32:36.738Z,99.99
2019-02-04T00:33:36.750Z,99.99
2019-02-04T00:34:36.715Z,99.99
2019-02-04T00:35:36.703Z,99.99
2019-02-04T00:36:36.704Z,99.99
2019-02-04T00:37:36.716Z,99.99
2019-02-04T00:38:36.676Z,99.99
2019-02-04T00:39:36.696Z,99.99
2019-02-04T00:40:36.654Z,99.99
2019-02-04T00:41:36.641Z,99.99
2019-02-04T00:42:36.632Z,99.99
2019-02-04T00:43:36.642Z,99.99
2019-02-04T00:44:36.645Z,99.99
2019-02-04T00:45:36.620Z,99.99
2019-02-04T00:46:36.592Z,99.99
2019-02-04T00:47:36.602Z,99.99
2019-02-04T00:48:36.565Z,99.99
2019-02-04T00:49:36.598Z,99.99
2019-02-04T00:50:36.545Z,99.99
2019-02-04T00:51:36.532Z,99.99
2019-02-04T00:52:36.520Z,99.99
2019-02-04T00:53:36.533Z,99.99
2019-02-04T00:54:36.502Z,99.99
2019-02-04T00:55:36.516Z,99.99
2019-02-04T00:56:36.477Z,99.99
2019-02-04T00:57:36.489Z,99.99
2019-02-04T00:58:36.455Z,99.99
2019-02-04T00:59:36.447Z,99.99
2019-02-04T01:00:36.439Z,99.99
2019-02-04T01:01:36.435Z,99.99
2019-02-04T01:02:36.436Z,99.99
2019-02-04T01:03:36.401Z,99.99
2019-02-04T01:04:36.390Z,99.99
2019-02-04T01:05:36.382Z,99.99
2019-02-04T01:06:36.393Z,99.99
2019-02-04T01:07:36.374Z,99.99
2019-02-04T01:08:36.373Z,99.99
2019-02-04T01:09:36.336Z,99.99
2019-02-04T01:10:36.327Z,99.99
2019-02-04T01:11:36.322Z,99.99
2019-02-04T01:12:36.327Z,99.99
2019-02-04T01:13:36.298Z,99.99
2019-02-04T01:14:36.283Z,99.99
2019-02-04T01:15:36.272Z,99.99
2019-02-04T01:16:36.262Z,99.99
2019-02-04T01:17:36.279Z,99.99
2019-02-04T01:18:36.240Z,99.99
2019-02-04T01:19:36.275Z,99.99
2019-02-04T01:20:36.222Z,99.99
2019-02-04T01:21:36.206Z,99.99
2019-02-04T01:22:36.200Z,99.99
2019-02-04T01:23:36.209Z,99.99
2019-02-04T01:24:36.176Z,99.99
2019-02-04T01:25:36.178Z,99.99
2019-02-04T01:26:36.163Z,99.99
2019-02-04T01:27:36.172Z,99.99
2019-02-04T01:28:36.133Z,99.99
2019-02-04T01:29:36.131Z,99.99
2019-02-04T01:30:36.110Z,99.99
2019-02-04T01:31:36.111Z,99.99
2019-02-04T01:32:36.116Z,99.99
2019-02-04T01:33:36.077Z,99.99
2019-02-04T01:34:36.086Z,99.99
2019-02-04T01:35:36.066Z,99.99
2019-02-04T01:36:36.046Z,99.99
2019-02-04T01:37:36.050Z,99.99
2019-02-04T01:38:36.024Z,99.99
2019-02-04T01:39:36.042Z,99.99
2019-02-04T01:40:36.001Z,99.99
2019-02-04T01:41:35.994Z,99.99
2019-02-04T01:42:36.000Z,99.99
2019-02-04T01:43:35.994Z,99.99
2019-02-04T01:44:36.003Z,99.99
2019-02-04T01:45:35.948Z,99.99
2019-02-04T01:46:35.942Z,99.99
2019-02-04T01:47:35.931Z,99.99
2019-02-04T01:48:35.915Z,99.99
2019-02-04T01:49:35.951Z,99.99
2019-02-04T01:50:35.894Z,99.99
2019-02-04T01:51:35.885Z,99.99
2019-02-04T01:52:35.875Z,99.99
2019-02-04T01:53:35.897Z,99.99
2019-02-04T01:54:35.851Z,99.99
2019-02-04T01:55:35.853Z,99.99
2019-02-04T01:56:35.836Z,99.99
2019-02-04T01:57:35.829Z,99.99
2019-02-04T01:58:35.836Z,99.99
2019-02-04T01:59:35.807Z,99.99
2019-02-04T02:00:35.789Z,99.99
2019-02-04T02:01:35.785Z,99.99
2019-02-04T02:02:35.793Z,99.99
2019-02-04T02:03:35.759Z,99.99
2019-02-04T02:04:35.751Z,99.99
2019-02-04T02:05:35.756Z,99.99
2019-02-04T02:06:35.724Z,99.99
2019-02-04T02:07:35.720Z,99.99
2019-02-04T02:08:35.726Z,99.99
2019-02-04T02:09:35.689Z,99.99
2019-02-04T02:10:35.679Z,99.99
2019-02-04T02:11:35.669Z,99.99
2019-02-04T02:12:35.687Z,99.99
2019-02-04T02:13:35.684Z,99.99
2019-02-04T02:14:35.634Z,99.99
2019-02-04T02:15:35.633Z,99.99
2019-02-04T02:16:35.639Z,99.99
2019-02-04T02:17:35.604Z,99.99
2019-02-04T02:18:35.592Z,99.99
2019-02-04T02:19:35.591Z,99.99
2019-02-04T02:20:35.569Z,99.99
2019-02-04T02:21:35.580Z,99.99
2019-02-04T02:22:35.551Z,99.99
2019-02-04T02:23:35.543Z,99.99
2019-02-04T02:24:35.570Z,99.99
2019-02-04T02:25:35.530Z,99.99
2019-02-04T02:26:35.531Z,99.99
2019-02-04T02:27:35.521Z,99.99
2019-02-04T02:28:35.512Z,99.99
2019-02-04T02:29:35.472Z,99.99
2019-02-04T02:30:35.463Z,99.99
2019-02-04T02:31:35.485Z,99.99
2019-02-04T02:32:35.440Z,99.99
2019-02-04T02:33:35.430Z,99.99
2019-02-04T02:34:35.425Z,99.99
2019-02-04T02:35:35.437Z,99.99
2019-02-04T02:36:35.397Z,99.99
2019-02-04T02:37:35.398Z,99.99
2019-02-04T02:38:35.401Z,99.99
2019-02-04T02:39:35.387Z,99.99
2019-02-04T02:40:35.364Z,99.99
2019-02-04T02:41:35.348Z,99.99
2019-02-04T02:42:35.332Z,99.99
2019-02-04T02:43:35.332Z,99.99
2019-02-04T02:44:35.326Z,99.99
2019-02-04T02:45:35.305Z,99.99
2019-02-04T02:46:35.299Z,99.99
2019-02-04T02:47:38.467Z,99.99
2019-02-04T02:48:35.268Z,99.99
2019-02-04T02:49:35.287Z,99.99
2019-02-04T02:50:35.249Z,99.99
2019-02-04T02:51:35.241Z,99.99
2019-02-04T02:52:35.238Z,99.99
2019-02-04T02:53:35.214Z,99.99
2019-02-04T02:54:35.226Z,99.99
2019-02-04T02:55:35.199Z,99.99
2019-02-04T02:56:35.183Z,99.99
2019-02-04T02:57:35.179Z,99.99
2019-02-04T02:58:35.158Z,99.99
2019-02-04T02:59:35.179Z,99.99
2019-02-04T03:00:35.138Z,99.99
2019-02-04T03:01:35.161Z,99.99
2019-02-04T03:02:35.116Z,99.99
2019-02-04T03:03:35.111Z,99.99
2019-02-04T03:04:35.094Z,99.99
2019-02-04T03:05:35.117Z,99.99
2019-02-04T03:06:35.072Z,99.99
2019-02-04T03:07:35.095Z,99.87
2019-02-04T03:08:35.063Z,99.99
2019-02-04T03:09:35.050Z,99.99
2019-02-04T03:10:35.033Z,99.99
2019-02-04T03:11:35.019Z,99.99
2019-02-04T03:12:35.034Z,99.99
2019-02-04T03:13:35.005Z,99.99
2019-02-04T03:14:34.987Z,99.99
2019-02-04T03:15:34.983Z,99.99
2019-02-04T03:16:34.964Z,99.99
2019-02-04T03:17:34.982Z,99.99
2019-02-04T03:18:34.965Z,99.99
2019-02-04T03:19:35.004Z,99.99
2019-02-04T03:20:34.921Z,99.99
2019-02-04T03:21:34.921Z,99.99
2019-02-04T03:22:34.901Z,99.99
2019-02-04T03:23:34.886Z,99.99
2019-02-04T03:24:34.899Z,99.99
2019-02-04T03:25:34.874Z,99.99
2019-02-04T03:26:34.861Z,99.99
2019-02-04T03:27:34.851Z,99.99
2019-02-04T03:28:34.862Z,99.93
2019-02-04T03:29:34.822Z,99.99
2019-02-04T03:30:34.852Z,99.99
2019-02-04T03:31:34.813Z,99.98
2019-02-04T03:32:34.806Z,99.98
2019-02-04T03:33:34.781Z,99.98
2019-02-04T03:34:34.800Z,99.98
2019-02-04T03:35:34.758Z,99.84
2019-02-04T03:36:34.748Z,99.77
2019-02-04T03:37:34.757Z,99.67
2019-02-04T03:38:34.725Z,99.52
2019-02-04T03:39:34.742Z,99.67
2019-02-04T03:40:34.704Z,99.77
2019-02-04T03:41:34.693Z,99.63
2019-02-04T03:42:34.685Z,99.77
2019-02-04T03:43:34.710Z,99.41
2019-02-04T03:44:34.661Z,99.67
2019-02-04T03:45:34.649Z,99.63
2019-02-04T03:46:34.637Z,99.63
2019-02-04T03:47:34.627Z,99.10
2019-02-04T03:48:34.648Z,99.21
2019-02-04T03:49:34.615Z,99.31
2019-02-04T03:50:34.596Z,99.21
2019-02-04T03:51:34.584Z,99.00
2019-02-04T03:52:34.572Z,99.52
2019-02-04T03:53:34.583Z,99.37
2019-02-04T03:54:34.552Z,99.37
2019-02-04T03:55:34.554Z,99.37
2019-02-04T03:56:34.556Z,99.37
2019-02-04T03:57:34.516Z,99.27
2019-02-04T03:58:34.506Z,99.27
2019-02-04T03:59:34.496Z,99.37
2019-02-04T04:00:34.486Z,99.16
2019-02-04T04:01:34.508Z,99.16
2019-02-04T04:02:34.472Z,99.27
2019-02-04T04:03:34.451Z,99.16
2019-02-04T04:04:34.441Z,99.05
2019-02-04T04:05:34.453Z,99.16
2019-02-04T04:06:34.420Z,99.16
2019-02-04T04:07:34.451Z,98.95
2019-02-04T04:08:34.397Z,99.16
2019-02-04T04:09:34.387Z,99.27
2019-02-04T04:10:34.374Z,99.48
2019-02-04T04:11:34.404Z,99.27
2019-02-04T04:12:34.354Z,99.32
2019-02-04T04:13:34.364Z,99.48
2019-02-04T04:14:34.330Z,99.37
2019-02-04T04:15:34.346Z,99.32
2019-02-04T04:16:34.310Z,99.43
2019-02-04T04:17:34.298Z,99.54
2019-02-04T04:18:34.290Z,98.80
2019-02-04T04:19:34.296Z,98.69
2019-02-04T04:20:34.294Z,98.80
2019-02-04T04:21:34.258Z,98.34
2019-02-04T04:22:34.244Z,98.55
2019-02-04T04:23:34.257Z,98.55
2019-02-04T04:24:34.244Z,98.97
2019-02-04T04:25:34.229Z,98.75
2019-02-04T04:26:34.201Z,98.86
2019-02-04T04:27:34.191Z,98.86
2019-02-04T04:28:34.207Z,98.65
2019-02-04T04:29:34.196Z,98.24
2019-02-04T04:30:34.158Z,98.24
2019-02-04T04:31:34.192Z,98.34
2019-02-04T04:32:34.134Z,98.13
2019-02-04T04:33:34.154Z,98.08
2019-02-04T04:34:34.113Z,97.98
2019-02-04T04:35:34.104Z,97.35
2019-02-04T04:36:34.093Z,97.77
2019-02-04T04:37:34.096Z,97.92
2019-02-04T04:38:34.095Z,97.88
2019-02-04T04:39:34.078Z,97.67
2019-02-04T04:40:34.050Z,97.77
2019-02-04T04:41:34.052Z,97.14
2019-02-04T04:42:34.057Z,97.45
2019-02-04T04:43:34.027Z,96.83
2019-02-04T04:44:34.007Z,96.94
2019-02-04T04:45:33.995Z,96.62
2019-02-04T04:46:33.981Z,96.31
2019-02-04T04:47:33.985Z,96.37
2019-02-04T04:48:33.961Z,96.10
2019-02-04T04:49:33.989Z,96.58
2019-02-04T04:50:33.954Z,96.41
2019-02-04T04:51:33.933Z,95.95
2019-02-04T04:52:33.939Z,95.78
2019-02-04T04:53:33.907Z,95.57
2019-02-04T04:54:33.896Z,95.53
2019-02-04T04:55:33.922Z,95.74
2019-02-04T04:56:33.872Z,95.11
2019-02-04T04:57:33.864Z,95.01
2019-02-04T04:58:33.852Z,94.59
2019-02-04T04:59:33.864Z,94.38
2019-02-04T05:00:33.831Z,94.49
2019-02-04T05:01:33.823Z,95.11
2019-02-04T05:02:33.811Z,95.11
2019-02-04T05:03:33.798Z,95.01
2019-02-04T05:04:33.811Z,95.11
2019-02-04T05:05:33.774Z,95.11
2019-02-04T05:06:33.766Z,94.90
2019-02-04T05:07:33.796Z,95.11
2019-02-04T05:08:33.747Z,94.70
2019-02-04T05:09:33.733Z,94.70
2019-02-04T05:10:33.720Z,94.90
2019-02-04T05:11:33.727Z,94.90
2019-02-04T05:12:33.708Z,94.70
2019-02-04T05:13:33.691Z,95.01
2019-02-04T05:14:33.676Z,94.90
2019-02-04T05:15:33.689Z,94.80
2019-02-04T05:16:33.656Z,94.80
2019-02-04T05:17:33.647Z,94.90
2019-02-04T05:18:38.158Z,94.59
2019-02-04T05:19:33.636Z,94.27
2019-02-04T05:20:33.609Z,93.96
2019-02-04T05:21:33.598Z,94.27
2019-02-04T05:22:33.589Z,94.38
2019-02-04T05:23:33.596Z,94.38
2019-02-04T05:24:33.566Z,94.80
2019-02-04T05:25:33.567Z,94.90
2019-02-04T05:26:33.591Z,95.11
2019-02-04T05:27:33.532Z,94.80
2019-02-04T05:28:33.527Z,94.80
2019-02-04T05:29:33.519Z,94.49
2019-02-04T05:30:33.499Z,95.11
2019-02-04T05:31:33.530Z,95.11
2019-02-04T05:32:33.477Z,95.11
2019-02-04T05:33:33.466Z,94.95
2019-02-04T05:34:33.457Z,94.80
2019-02-04T05:35:33.467Z,95.01
2019-02-04T05:36:33.434Z,94.80
2019-02-04T05:37:33.443Z,94.38
2019-02-04T05:38:33.415Z,94.38
2019-02-04T05:39:33.401Z,94.49
2019-02-04T05:40:33.414Z,94.38
2019-02-04T05:41:33.383Z,94.38
2019-02-04T05:42:34.725Z,93.65
2019-02-04T05:43:33.365Z,93.65
2019-02-04T05:44:33.346Z,93.65
2019-02-04T05:45:33.369Z,93.65
2019-02-04T05:46:33.328Z,94.07
2019-02-04T05:47:33.323Z,93.76
2019-02-04T05:48:33.302Z,94.27
2019-02-04T05:49:33.301Z,93.54
2019-02-04T05:50:33.294Z,93.02
2019-02-04T05:51:33.270Z,93.02
2019-02-04T05:52:33.266Z,92.82
2019-02-04T05:53:33.273Z,92.92
2019-02-04T05:54:33.236Z,93.23
2019-02-04T05:55:33.236Z,93.44
2019-02-04T05:56:33.216Z,93.54
2019-02-04T05:57:33.206Z,93.23
2019-02-04T05:58:33.290Z,93.76
2019-02-04T05:59:33.182Z,93.33
2019-02-04T06:00:33.170Z,93.33
2019-02-04T06:01:33.279Z,93.23
2019-02-04T06:02:33.154Z,93.44
2019-02-04T06:03:33.162Z,93.54
2019-02-04T06:04:33.139Z,93.86
2019-02-04T06:05:33.115Z,93.65
2019-02-04T06:06:33.105Z,93.65
2019-02-04T06:07:33.098Z,93.33
2019-02-04T06:08:33.106Z,93.44
2019-02-04T06:09:33.079Z,92.50
2019-02-04T06:10:33.081Z,92.92
2019-02-04T06:11:33.050Z,93.13
2019-02-04T06:12:34.999Z,92.92
2019-02-04T06:13:33.054Z,93.02
2019-02-04T06:14:33.019Z,92.82
2019-02-04T06:15:33.038Z,92.60
2019-02-04T06:16:32.994Z,93.13
2019-02-04T06:17:32.985Z,92.50
2019-02-04T06:18:32.989Z,92.98
2019-02-04T06:19:32.971Z,92.60
2019-02-04T06:20:32.968Z,92.71
2019-02-04T06:21:32.941Z,92.29
2019-02-04T06:22:32.931Z,92.60
2019-02-04T06:23:32.952Z,93.44
2019-02-04T06:24:32.917Z,93.13
2019-02-04T06:25:32.926Z,93.13
2019-02-04T06:26:32.889Z,93.13
2019-02-04T06:27:32.882Z,92.92
2019-02-04T06:28:32.864Z,93.23
2019-02-04T06:29:32.854Z,93.02
2019-02-04T06:30:32.890Z,92.50
2019-02-04T06:31:32.834Z,92.71
2019-02-04T06:32:34.578Z,92.19
2019-02-04T06:33:32.822Z,92.50
2019-02-04T06:34:32.800Z,92.71
2019-02-04T06:35:32.821Z,92.60
2019-02-04T06:36:32.788Z,92.50
2019-02-04T06:37:32.790Z,93.44
2019-02-04T06:38:32.755Z,93.19
2019-02-04T06:39:32.771Z,92.98
2019-02-04T06:40:32.731Z,92.92
2019-02-04T06:41:32.728Z,93.02
2019-02-04T06:42:32.716Z,93.23
2019-02-04T06:43:32.724Z,93.13
2019-02-04T06:44:32.714Z,92.29
2019-02-04T06:45:32.683Z,92.60
2019-02-04T06:46:32.667Z,92.77
2019-02-04T06:47:32.656Z,92.14
2019-02-04T06:48:32.681Z,92.19
2019-02-04T06:49:32.633Z,91.98
2019-02-04T06:50:32.650Z,92.35
2019-02-04T06:51:32.612Z,92.25
2019-02-04T06:52:32.602Z,91.98
2019-02-04T06:53:32.615Z,92.29
2019-02-04T06:54:32.594Z,91.98
2019-02-04T06:55:32.572Z,92.29
2019-02-04T06:56:32.559Z,91.98
2019-02-04T06:57:32.561Z,91.91
2019-02-04T06:58:32.539Z,91.98
2019-02-04T06:59:32.551Z,92.54
2019-02-04T07:00:32.527Z,92.02
2019-02-04T07:01:32.506Z,92.65
2019-02-04T07:02:32.493Z,92.33
2019-02-04T07:03:32.514Z,92.79
2019-02-04T07:04:32.469Z,93.11
2019-02-04T07:05:43.170Z,92.69
2019-02-04T07:06:33.456Z,92.38
2019-02-04T07:07:32.440Z,92.69
2019-02-04T07:08:32.452Z,92.90
2019-02-04T07:09:32.419Z,93.32
2019-02-04T07:10:32.404Z,93.32
2019-02-04T07:11:32.415Z,93.01
2019-02-04T07:12:32.393Z,93.11
2019-02-04T07:13:32.371Z,93.15
2019-02-04T07:14:32.362Z,93.32
2019-02-04T07:15:32.349Z,93.01
2019-02-04T07:16:32.370Z,93.21
2019-02-04T07:17:32.328Z,93.11
2019-02-04T07:18:32.334Z,93.21
2019-02-04T07:19:32.307Z,92.27
2019-02-04T07:20:32.297Z,92.58
2019-02-04T07:21:32.310Z,93.01
2019-02-04T07:22:32.274Z,92.21
2019-02-04T07:23:32.264Z,92.73
2019-02-04T07:24:42.516Z,93.04
2019-02-04T07:25:33.247Z,92.83
2019-02-04T07:26:32.246Z,92.52
2019-02-04T07:27:32.244Z,92.73
2019-02-04T07:28:32.352Z,92.77
2019-02-04T07:29:32.214Z,92.73
2019-02-04T07:30:32.220Z,93.19
2019-02-04T07:31:32.176Z,93.57
2019-02-04T07:32:32.164Z,93.30
2019-02-04T07:33:32.152Z,93.51
2019-02-04T07:34:32.202Z,92.94
2019-02-04T07:35:32.131Z,93.15
2019-02-04T07:36:32.127Z,93.51
2019-02-04T07:37:32.115Z,92.98
2019-02-04T07:38:32.122Z,93.57
2019-02-04T07:39:32.087Z,93.26
2019-02-04T07:40:32.099Z,93.36
2019-02-04T07:41:32.069Z,93.46
2019-02-04T07:42:32.073Z,92.94
2019-02-04T07:43:32.043Z,92.83
2019-02-04T07:44:32.032Z,92.31
2019-02-04T07:45:32.045Z,92.31
2019-02-04T07:46:32.012Z,92.00
2019-02-04T07:47:32.028Z,92.00
2019-02-04T07:48:31.999Z,91.89
2019-02-04T07:49:35.336Z,92.10
2019-02-04T07:50:31.970Z,92.00
2019-02-04T07:51:31.980Z,92.27
2019-02-04T07:52:31.946Z,91.89
2019-02-04T07:53:31.936Z,92.21
2019-02-04T07:54:31.936Z,92.10
2019-02-04T07:55:31.948Z,91.89
2019-02-04T07:56:31.906Z,92.38
2019-02-04T07:57:31.894Z,92.06
2019-02-04T07:58:31.881Z,91.43
2019-02-04T07:59:31.872Z,91.75
2019-02-04T08:00:31.898Z,91.85
2019-02-04T08:01:31.848Z,91.75
2019-02-04T08:02:31.837Z,91.33
2019-02-04T08:03:31.826Z,91.33
2019-02-04T08:04:31.852Z,91.43
2019-02-04T08:05:31.828Z,91.50
2019-02-04T08:06:31.807Z,91.12
2019-02-04T08:07:31.786Z,91.12
2019-02-04T08:08:32.061Z,90.70
2019-02-04T08:09:31.785Z,90.28
2019-02-04T08:10:31.748Z,90.28
2019-02-04T08:11:31.762Z,90.49
2019-02-04T08:12:31.761Z,90.56
2019-02-04T08:13:31.716Z,90.49
2019-02-04T08:14:31.705Z,89.93
2019-02-04T08:15:31.695Z,90.28
2019-02-04T08:16:31.700Z,90.03
2019-02-04T08:17:31.675Z,90.14
2019-02-04T08:18:31.668Z,90.24
2019-02-04T08:19:31.651Z,90.24
2019-02-04T08:20:31.639Z,90.14
2019-02-04T08:21:31.650Z,90.03
2019-02-04T08:22:31.617Z,89.93
2019-02-04T08:23:31.630Z,90.08
2019-02-04T08:24:31.626Z,90.03
2019-02-04T08:25:31.585Z,90.14
2019-02-04T08:26:31.575Z,90.70
2019-02-04T08:27:31.563Z,90.34
2019-02-04T08:28:31.575Z,90.24
2019-02-04T08:29:31.541Z,90.45
2019-02-04T08:30:31.537Z,89.83
2019-02-04T08:31:31.518Z,90.45
2019-02-04T08:32:31.508Z,90.09
2019-02-04T08:33:31.528Z,90.56
2019-02-04T08:34:31.486Z,89.99
2019-02-04T08:35:31.475Z,89.51
2019-02-04T08:36:43.046Z,89.51
2019-02-04T08:37:32.453Z,89.58
2019-02-04T08:38:31.470Z,89.99
2019-02-04T08:39:31.455Z,89.58
2019-02-04T08:40:31.427Z,89.58
2019-02-04T08:41:31.427Z,89.68
2019-02-04T08:42:31.430Z,89.26
2019-02-04T08:43:31.389Z,89.47
2019-02-04T08:44:31.377Z,89.78
2019-02-04T08:45:31.392Z,89.05
2019-02-04T08:46:31.355Z,89.11
2019-02-04T08:47:31.347Z,89.22
2019-02-04T08:48:31.347Z,89.15
2019-02-04T08:49:31.346Z,89.11
2019-02-04T08:50:31.312Z,89.11
2019-02-04T08:51:31.301Z,88.59
2019-02-04T08:52:31.298Z,89.43
2019-02-04T08:53:31.294Z,88.49
2019-02-04T08:54:31.286Z,88.90
2019-02-04T08:55:31.257Z,88.39
2019-02-04T08:56:31.248Z,88.39
2019-02-04T08:57:31.264Z,88.03
2019-02-04T08:58:31.250Z,88.13
2019-02-04T08:59:31.214Z,87.93
2019-02-04T09:00:31.205Z,87.93
2019-02-04T09:01:31.192Z,87.93
2019-02-04T09:02:31.203Z,87.82
2019-02-04T09:03:31.187Z,87.71
2019-02-04T09:04:31.160Z,87.71
2019-02-04T09:05:31.147Z,87.57
2019-02-04T09:06:31.174Z,86.99
2019-02-04T09:07:31.127Z,87.37
2019-02-04T09:08:31.116Z,87.37
2019-02-04T09:09:31.104Z,87.05
2019-02-04T09:10:31.118Z,86.94
2019-02-04T09:11:31.085Z,87.09
2019-02-04T09:12:31.084Z,86.99
2019-02-04T09:13:31.084Z,86.63
2019-02-04T09:14:31.050Z,86.53
2019-02-04T09:15:31.038Z,86.53
2019-02-04T09:16:31.028Z,86.53
2019-02-04T09:17:31.017Z,86.11
2019-02-04T09:18:31.037Z,85.97
2019-02-04T09:19:31.017Z,85.86
2019-02-04T09:20:30.983Z,85.97
2019-02-04T09:21:30.973Z,85.86
2019-02-04T09:22:30.966Z,85.76
2019-02-04T09:23:30.975Z,86.28
2019-02-04T09:24:30.944Z,85.24
2019-02-04T09:25:30.952Z,85.76
2019-02-04T09:26:30.920Z,85.65
2019-02-04T09:27:30.909Z,85.97
2019-02-04T09:28:30.930Z,85.86
2019-02-04T09:29:30.885Z,85.24
2019-02-04T09:30:30.878Z,84.92
2019-02-04T09:31:30.870Z,84.36
2019-02-04T09:32:30.851Z,84.67
2019-02-04T09:33:30.864Z,84.57
2019-02-04T09:34:30.849Z,84.26
2019-02-04T09:35:30.819Z,84.53
2019-02-04T09:36:30.856Z,84.12
2019-02-04T09:37:30.800Z,84.12
2019-02-04T09:38:30.809Z,84.22
2019-02-04T09:39:30.778Z,84.08
2019-02-04T09:40:30.791Z,83.97
2019-02-04T09:41:30.761Z,83.35
2019-02-04T09:42:30.749Z,83.87
2019-02-04T09:43:30.734Z,83.00
2019-02-04T09:44:30.720Z,83.52
2019-02-04T09:45:30.732Z,81.99
2019-02-04T09:46:30.698Z,82.79
2019-02-04T09:47:30.688Z,83.00
2019-02-04T09:48:30.690Z,82.23
2019-02-04T09:49:30.713Z,82.13
2019-02-04T09:50:32.517Z,82.34
2019-02-04T09:51:30.647Z,83.06
2019-02-04T09:52:30.633Z,82.20
2019-02-04T09:53:30.622Z,82.09
2019-02-04T09:54:30.640Z,82.40
2019-02-04T09:55:30.609Z,81.26
2019-02-04T09:56:30.684Z,81.57
2019-02-04T09:57:30.577Z,80.53
2019-02-04T09:58:30.568Z,80.11
2019-02-04T09:59:30.560Z,80.63
2019-02-04T10:00:30.577Z,80.74
2019-02-04T10:01:30.538Z,80.43
2019-02-04T10:02:30.547Z,80.53
2019-02-04T10:03:30.511Z,80.11
2019-02-04T10:04:30.503Z,79.91
2019-02-04T10:05:30.624Z,79.91
2019-02-04T10:06:30.478Z,81.15
2019-02-04T10:07:30.543Z,81.12
2019-02-04T10:08:30.481Z,80.60
2019-02-04T10:09:30.444Z,79.91
2019-02-04T10:10:30.441Z,79.97
2019-02-04T10:11:30.441Z,81.01
2019-02-04T10:12:30.419Z,80.80
2019-02-04T10:13:30.436Z,80.46
2019-02-04T10:14:30.426Z,79.80
2019-02-04T10:15:30.453Z,80.04
2019-02-04T10:16:30.401Z,78.96
2019-02-04T10:17:30.372Z,78.89
2019-02-04T10:18:30.395Z,78.34
2019-02-04T10:19:30.385Z,77.82
2019-02-04T10:20:34.250Z,77.92
2019-02-04T10:21:30.345Z,78.03
2019-02-04T10:22:30.453Z,78.03
2019-02-04T10:23:30.290Z,78.75
2019-02-04T10:24:30.283Z,77.23
2019-02-04T10:25:30.306Z,77.51
2019-02-04T10:26:30.257Z,77.92
2019-02-04T10:27:30.247Z,77.47
2019-02-04T10:28:30.268Z,77.16
2019-02-04T10:29:30.257Z,77.06
2019-02-04T10:30:30.280Z,77.26
2019-02-04T10:31:30.237Z,77.23
2019-02-04T10:32:30.202Z,75.98
2019-02-04T10:33:30.183Z,76.16
2019-02-04T10:34:30.182Z,75.26
2019-02-04T10:35:30.189Z,75.85
2019-02-04T10:36:30.148Z,76.16
2019-02-04T10:37:30.168Z,75.19
2019-02-04T10:38:30.131Z,75.19
2019-02-04T10:39:30.113Z,75.81
2019-02-04T10:40:30.164Z,75.71
2019-02-04T10:41:30.112Z,74.71
2019-02-04T10:42:30.087Z,75.23
2019-02-04T10:43:30.085Z,76.02
2019-02-04T10:44:30.058Z,74.88
2019-02-04T10:45:30.129Z,75.09
2019-02-04T10:46:30.046Z,75.57
2019-02-04T10:47:30.028Z,74.57
2019-02-04T10:48:30.061Z,74.88
2019-02-04T10:49:30.061Z,74.91
2019-02-04T10:50:30.045Z,73.91
2019-02-04T10:51:30.022Z,74.32
2019-02-04T10:52:29.975Z,74.22
2019-02-04T10:53:29.958Z,74.11
2019-02-04T10:54:30.108Z,74.11
2019-02-04T10:55:29.955Z,73.67
2019-02-04T10:56:29.989Z,73.36
2019-02-04T10:57:40.350Z,73.15
2019-02-04T10:58:31.014Z,72.74
2019-02-04T10:59:29.899Z,73.05
2019-02-04T11:00:29.889Z,73.01
2019-02-04T11:01:29.930Z,73.74
2019-02-04T11:02:29.868Z,72.29
2019-02-04T11:03:29.895Z,71.98
2019-02-04T11:04:29.880Z,71.39
2019-02-04T11:05:29.852Z,71.28
2019-02-04T11:06:29.889Z,72.60
2019-02-04T11:07:29.859Z,71.77
2019-02-04T11:08:32.714Z,73.19
2019-02-04T11:09:29.812Z,71.94
2019-02-04T11:10:29.829Z,71.25
2019-02-04T11:11:29.789Z,71.77
2019-02-04T11:12:29.816Z,71.77
2019-02-04T11:13:29.801Z,71.25
2019-02-04T11:14:29.768Z,71.98
2019-02-04T11:15:29.782Z,71.25
2019-02-04T11:16:29.730Z,71.63
2019-02-04T11:17:29.744Z,72.56
2019-02-04T11:18:29.685Z,72.12
2019-02-04T11:19:29.683Z,71.19
2019-02-04T11:20:29.686Z,70.98
2019-02-04T11:21:29.689Z,71.88
2019-02-04T11:22:29.659Z,71.67
2019-02-04T11:23:29.650Z,69.60
2019-02-04T11:24:29.626Z,70.12
2019-02-04T11:25:29.608Z,70.22
2019-02-04T11:26:29.594Z,68.77
2019-02-04T11:27:29.729Z,70.43
2019-02-04T11:28:29.614Z,69.12
2019-02-04T11:29:29.590Z,69.40
2019-02-04T11:30:29.551Z,70.12
2019-02-04T11:31:29.577Z,68.15
2019-02-04T11:32:29.580Z,68.26
2019-02-04T11:33:29.531Z,68.54
2019-02-04T11:34:29.524Z,67.40
2019-02-04T11:35:29.530Z,67.30
2019-02-04T11:36:29.548Z,67.09
2019-02-04T11:37:29.524Z,66.16
2019-02-04T11:38:29.511Z,67.78
2019-02-04T11:39:29.499Z,67.71
2019-02-04T11:40:29.495Z,66.99
2019-02-04T11:41:29.472Z,66.67
2019-02-04T11:42:29.423Z,66.16
2019-02-04T11:43:29.437Z,66.09
2019-02-04T11:44:29.409Z,67.02
2019-02-04T11:45:29.393Z,65.88
2019-02-04T11:46:29.443Z,66.91
2019-02-04T11:47:29.379Z,66.60
2019-02-04T11:48:29.397Z,68.02
2019-02-04T11:49:29.381Z,66.99
2019-02-04T11:50:29.330Z,67.09
2019-02-04T11:51:29.355Z,65.44
2019-02-04T11:52:29.314Z,65.23
2019-02-04T11:53:32.937Z,66.06
2019-02-04T11:54:29.290Z,66.33
2019-02-04T11:55:29.275Z,65.02
2019-02-04T11:56:29.266Z,64.27
2019-02-04T11:57:29.295Z,65.20
2019-02-04T11:58:29.242Z,65.20
2019-02-04T11:59:29.236Z,63.96
2019-02-04T12:00:29.223Z,63.47
2019-02-04T12:01:29.211Z,62.95
2019-02-04T12:02:34.574Z,64.30
2019-02-04T12:03:30.195Z,63.47
2019-02-04T12:04:29.177Z,62.75
2019-02-04T12:05:29.170Z,64.37
2019-02-04T12:06:29.311Z,63.13
2019-02-04T12:07:29.164Z,63.34
2019-02-04T12:08:29.133Z,62.93
2019-02-04T12:09:29.126Z,62.93
2019-02-04T12:10:29.115Z,62.82
2019-02-04T12:11:29.123Z,62.20
2019-02-04T12:12:29.087Z,61.99
2019-02-04T12:13:29.077Z,61.82
2019-02-04T12:14:29.067Z,62.54
2019-02-04T12:15:29.095Z,62.51
2019-02-04T12:16:29.047Z,63.03
2019-02-04T12:17:29.033Z,62.90
2019-02-04T12:18:29.021Z,63.10
2019-02-04T12:19:29.010Z,63.51
2019-02-04T12:20:29.022Z,63.51
2019-02-04T12:21:29.007Z,59.93
2019-02-04T12:22:28.979Z,60.75
2019-02-04T12:23:28.968Z,60.65
2019-02-04T12:24:28.955Z,61.69
2019-02-04T12:25:28.970Z,61.89
2019-02-04T12:26:28.935Z,62.07
2019-02-04T12:27:31.950Z,59.83
2019-02-04T12:28:28.916Z,61.35
2019-02-04T12:29:28.900Z,61.66
2019-02-04T12:30:30.932Z,60.52
2019-02-04T12:31:28.877Z,60.11
2019-02-04T12:32:28.885Z,59.28
2019-02-04T12:33:28.888Z,60.00
2019-02-04T12:34:28.846Z,60.21
2019-02-04T12:35:28.834Z,59.49
2019-02-04T12:36:28.822Z,59.31
2019-02-04T12:37:28.860Z,60.14
2019-02-04T12:38:28.801Z,59.41
2019-02-04T12:39:28.795Z,60.52
2019-02-04T12:40:28.800Z,60.31
2019-02-04T12:41:28.802Z,59.59
2019-02-04T12:42:28.758Z,58.94
2019-02-04T12:43:28.746Z,60.00
2019-02-04T12:44:28.733Z,59.69
2019-02-04T12:45:28.730Z,57.11
2019-02-04T12:46:28.750Z,58.07
2019-02-04T12:47:28.701Z,57.55
2019-02-04T12:48:28.690Z,58.17
2019-02-04T12:49:28.683Z,59.52
2019-02-04T12:50:28.672Z,57.99
2019-02-04T12:51:33.786Z,58.72
2019-02-04T12:52:29.659Z,58.82